Time;durP1;ratioP1;P1;durP2;ratioP2;P2;SDS_P1;SDS_P2;PMS_P1;PMS_P2;Temp;Humidity;BMP_temperature;BMP_pressure;BME280_temperature;BME280_humidity;BME280_pressure;Samples;Min_cycle;Max_cycle;Signal;HPM_P1;HPM_P2
2021/05/19 00:01:14;;;;;;;;;;;;;;;;;;7353932;40;1310;-15
2021/05/19 00:06:36;;;;;;;;;;;;;;;;;;7353956;40;1080;-15
2021/05/19 00:11:57;;;;;;;;;;;;;;;;;;7345600;40;1940;-15
2021/05/19 00:17:17;;;;;;;;;;;;;;;;;;7353426;40;1107;-15
2021/05/19 00:22:38;;;;;;;;;;;;;;;;;;7353774;40;1116;-15
2021/05/19 00:27:59;;;;;;;;;;;;;;;;;;7352559;40;2035;-15
2021/05/19 00:33:20;;;;;;;;;;;;;;;;;;7353531;40;1021;-15
2021/05/19 00:38:41;;;;;;;;;;;;;;;;;;7352995;40;1049;-14
2021/05/19 00:44:06;;;;;;;;;;;;;;;;;;7339608;40;1075;-15
2021/05/19 00:49:26;;;;;;;;;;;;;;;;;;7332427;40;1875;-14
2021/05/19 00:54:47;;;;;;;;;;;;;;;;;;7332585;40;1214;-14
2021/05/19 01:00:13;;;;;;;;;;;;;;;;;;7324523;40;1207;-15
2021/05/19 01:06:05;;;;;;;;;;;;;;;;;;7324369;40;1326;-14
2021/05/19 01:11:31;;;;;;;;;;;;;;;;;;7332459;40;1883;-14
2021/05/19 01:16:52;;;;;;;;;;;;;;;;;;7332432;40;1085;-15
2021/05/19 01:22:20;;;;;;;;;;;;;;;;;;7331937;40;1564;-15
2021/05/19 01:27:40;;;;;;;;;;;;;;;;;;7332735;40;1943;-14
2021/05/19 01:33:02;;;;;;;;;;;;;;;;;;7323800;40;1452;-15
2021/05/19 01:38:39;;;;;;;;;;;;;;;;;;7331874;40;1145;-14
2021/05/19 01:44:15;;;;;;;;;;;;;;;;;;7332308;40;1061;-15
2021/05/19 01:49:56;;;;;;;;;;;;;;;;;;7339048;40;1940;-15
2021/05/19 01:55:17;;;;;;;;;;;;;;;;;;7352546;40;1003;-14
2021/05/19 02:00:39;;;;;;;;;;;;;;;;;;7343394;40;1281;-15
2021/05/19 02:06:01;;;;;;;;;;;;;;;;;;7336794;40;1236;-14
2021/05/19 02:11:24;;;;;;;;;;;;;;;;;;7351415;40;1979;-14
2021/05/19 02:16:47;;;;;;;;;;;;;;;;;;7351400;40;1117;-14
2021/05/19 02:22:09;;;;;;;;;;;;;;;;;;7342571;40;1634;-15
2021/05/19 02:27:45;;;;;;;;;;;;;;;;;;7351310;40;1347;-15
2021/05/19 02:33:11;;;;;;;;;;;;;;;;;;7344130;40;1099;-15
2021/05/19 02:38:35;;;;;;;;;;;;;;;;;;7351564;40;1122;-14
2021/05/19 02:43:58;;;;;;;;;;;;;;;;;;7331043;40;1052;-14
2021/05/19 02:49:19;;;;;;;;;;;;;;;;;;7322882;40;1916;-15
2021/05/19 02:54:40;;;;;;;;;;;;;;;;;;7330788;40;1530;-14
2021/05/19 03:00:03;;;;;;;;;;;;;;;;;;7331039;40;1149;-15
2021/05/19 03:05:23;;;;;;;;;;;;;;;;;;7330700;40;1206;-14
2021/05/19 03:10:44;;;;;;;;;;;;;;;;;;7331086;40;1874;-14
2021/05/19 03:16:05;;;;;;;;;;;;;;;;;;7322216;40;1041;-14
2021/05/19 03:21:26;;;;;;;;;;;;;;;;;;7330473;40;1124;-15
2021/05/19 03:26:47;;;;;;;;;;;;;;;;;;7330544;40;1020;-14
2021/05/19 03:32:07;;;;;;;;;;;;;;;;;;7330477;40;1968;-14
2021/05/19 03:37:28;;;;;;;;;;;;;;;;;;7330201;40;961;-14
2021/05/19 03:42:49;;;;;;;;;;;;;;;;;;7322285;40;1098;-14
2021/05/19 03:48:23;;;;;;;;;;;;;;;;;;7334836;40;1952;-15
2021/05/19 03:53:45;;;;;;;;;;;;;;;;;;7341954;40;1033;-15
2021/05/19 03:59:05;;;;;;;;;;;;;;;;;;7350032;40;1171;-15
2021/05/19 04:04:26;;;;;;;;;;;;;;;;;;7352654;40;1307;-14
2021/05/19 04:09:47;;;;;;;;;;;;;;;;;;7353187;40;1879;-14
2021/05/19 04:15:08;;;;;;;;;;;;;;;;;;7353396;40;1097;-15
2021/05/19 04:20:29;;;;;;;;;;;;;;;;;;7352611;40;1232;-14
2021/05/19 04:25:50;;;;;;;;;;;;;;;;;;7353104;40;1104;-14
2021/05/19 04:31:11;;;;;;;;;;;;;;;;;;7352942;40;1870;-14
2021/05/19 04:36:46;;;;;;;;;;;;;;;;;;7352858;40;1286;-14
2021/05/19 04:42:06;;;;;;;;;;;;;;;;;;7352424;40;1616;-14
2021/05/19 04:47:27;;;;;;;;;;;;;;;;;;7324788;40;1110;-15
2021/05/19 04:52:49;;;;;;;;;;;;;;;;;;7323892;40;1930;-14
2021/05/19 04:58:10;;;;;;;;;;;;;;;;;;7332590;40;1091;-15
2021/05/19 05:03:30;;;;;;;;;;;;;;;;;;7332399;40;1086;-14
2021/05/19 05:08:51;;;;;;;;;;;;;;;;;;7332336;40;1936;-14
2021/05/19 05:14:12;;;;;;;;;;;;;;;;;;7331786;40;1005;-14
2021/05/19 05:19:33;;;;;;;;;;;;;;;;;;7316616;40;1018;-15
2021/05/19 05:24:54;;;;;;;;;;;;;;;;;;7340941;40;1167;-15
2021/05/19 05:30:28;;;;;;;;;;;;;;;;;;7331805;40;1869;-15
2021/05/19 05:35:49;;;;;;;;;;;;;;;;;;7332085;40;1012;-15
2021/05/19 05:41:10;;;;;;;;;;;;;;;;;;7331687;40;995;-15
2021/05/19 05:46:31;;;;;;;;;;;;;;;;;;7309059;40;1335;-13
2021/05/19 05:51:52;;;;;;;;;;;;;;;;;;7347534;40;1922;-14
2021/05/19 05:57:12;;;;;;;;;;;;;;;;;;7351649;40;1241;-13
2021/05/19 06:02:33;;;;;;;;;;;;;;;;;;7351549;40;1468;-14
2021/05/19 06:07:55;;;;;;;;;;;;;;;;;;7336357;40;990;-14
2021/05/19 06:13:17;;;;;;;;;;;;;;;;;;7350069;40;1879;-14
2021/05/19 06:18:38;;;;;;;;;;;;;;;;;;7352026;40;1262;-14
2021/05/19 06:23:59;;;;;;;;;;;;;;;;;;7351394;40;941;-14
2021/05/19 06:29:21;;;;;;;;;;;;;;;;;;7351706;40;1882;-14
2021/05/19 06:34:42;;;;;;;;;;;;;;;;;;7333490;40;1004;-14
2021/05/19 06:40:04;;;;;;;;;;;;;;;;;;7333653;40;1057;-14
2021/05/19 06:45:25;;;;;;;;;;;;;;;;;;7093269;40;10000499;-14
2021/05/19 06:50:46;;;;;;;;;;;;;;;;;;7328466;40;1934;-14
2021/05/19 06:56:08;;;;;;;;;;;;;;;;;;7328241;40;1137;-14
2021/05/19 07:01:42;;;;;;;;;;;;;;;;;;7328300;40;1248;-14
2021/05/19 07:07:17;;;;;;;;;;;;;;;;;;7328543;40;1304;-14
2021/05/19 07:12:38;;;;;;;;;;;;;;;;;;7339987;40;1934;-14
2021/05/19 07:18:11;;;;;;;;;;;;;;;;;;7348206;40;1446;-14
2021/05/19 07:23:34;;;;;;;;;;;;;;;;;;7348379;40;1220;-14
2021/05/19 07:28:56;;;;;;;;;;;;;;;;;;7332381;40;2057;-14
2021/05/19 07:34:16;;;;;;;;;;;;;;;;;;7345976;40;1106;-14
2021/05/19 07:39:37;;;;;;;;;;;;;;;;;;7350190;40;2050;-14
2021/05/19 07:44:58;;;;;;;;;;;;;;;;;;7350968;40;2704;-13
2021/05/19 07:50:18;;;;;;;;;;;;;;;;;;7340537;40;1902;-13
2021/05/19 08:06:26;;;;;;;;;;;;;;;;;;7330123;40;997;-13
2021/05/19 08:11:47;;;;;;;;;;;;;;;;;;7317093;40;1944;-13
2021/05/19 08:17:07;;;;;;;;;;;;;;;;;;7330711;40;1009;-13
2021/05/19 08:22:27;;;;;;;;;;;;;;;;;;7324627;40;1414;-13
2021/05/19 08:27:48;;;;;;;;;;;;;;;;;;7326904;40;1192;-13
2021/05/19 08:33:08;;;;;;;;;;;;;;;;;;7326731;40;1948;-13
2021/05/19 08:38:29;;;;;;;;;;;;;;;;;;7326681;40;1134;-13
2021/05/19 08:44:06;;;;;;;;;;;;;;;;;;7328915;40;1187;-13
2021/05/19 08:49:27;;;;;;;;;;;;;;;;;;7346070;40;1945;-13
2021/05/19 08:54:50;;;;;;;;;;;;;;;;;;7347116;40;975;-13
2021/05/19 09:00:11;;;;;;;;;;;;;;;;;;7346290;40;1229;-14
2021/05/19 09:05:34;;;;;;;;;;;;;;;;;;7341196;40;1335;-14
2021/05/19 09:11:03;;;;;;;;;;;;;;;;;;7352021;40;1889;-13
2021/05/19 09:16:25;;;;;;;;;;;;;;;;;;7352489;40;1115;-13
2021/05/19 09:21:46;;;;;;;;;;;;;;;;;;7352201;40;1116;-14
2021/05/19 09:27:07;;;;;;;;;;;;;;;;;;7350957;40;1369;-13
2021/05/19 09:32:33;;;;;;;;;;;;;;;;;;7350255;40;1890;-13
2021/05/19 09:37:53;;;;;;;;;;;;;;;;;;7350329;40;1149;-14
2021/05/19 09:43:30;;;;;;;;;;;;;;;;;;7346253;40;1024;-13
2021/05/19 09:49:11;;;;;;;;;;;;;;;;;;7343635;40;2226;-13
2021/05/19 09:54:39;;;;;;;;;;;;;;;;;;7328262;40;1146;-14
2021/05/19 10:00:00;;;;;;;;;;;;;;;;;;7331138;40;1091;-14
2021/05/19 10:05:38;;;;;;;;;;;;;;;;;;7330419;40;1229;-13
2021/05/19 10:11:01;;;;;;;;;;;;;;;;;;7330687;40;1878;-13
2021/05/19 10:16:30;;;;;;;;;;;;;;;;;;7321910;40;1258;-14
2021/05/19 10:21:52;;;;;;;;;;;;;;;;;;7330807;40;1242;-14
2021/05/19 10:27:15;;;;;;;;;;;;;;;;;;7330600;40;914;-14
2021/05/19 10:32:37;;;;;;;;;;;;;;;;;;7322759;40;1953;-14
2021/05/19 10:38:30;;;;;;;;;;;;;;;;;;7330740;40;1154;-14
2021/05/19 10:43:53;;;;;;;;;;;;;;;;;;7313593;40;1216;-14
2021/05/19 10:49:19;;;;;;;;;;;;;;;;;;7321480;40;1005;-14
2021/05/19 11:00:42;;;;;;;;;;;;;;;;;;7330332;40;1135;-14
2021/05/19 11:06:04;;;;;;;;;;;;;;;;;;7330491;40;963;-14
2021/05/19 11:11:31;;;;;;;;;;;;;;;;;;7332514;40;1946;-14
2021/05/19 11:17:14;;;;;;;;;;;;;;;;;;7337121;40;1202;-14
2021/05/19 11:22:35;;;;;;;;;;;;;;;;;;7337206;40;1295;-14
2021/05/19 11:28:00;;;;;;;;;;;;;;;;;;7336875;40;1084;-14
2021/05/19 11:33:22;;;;;;;;;;;;;;;;;;7328207;40;1939;-14
2021/05/19 11:38:50;;;;;;;;;;;;;;;;;;7328623;40;1239;-14
2021/05/19 11:44:29;;;;;;;;;;;;;;;;;;7336108;40;1367;-14
2021/05/19 11:50:09;;;;;;;;;;;;;;;;;;7341546;40;1888;-14
2021/05/19 11:55:50;;;;;;;;;;;;;;;;;;7356837;40;1287;-14
2021/05/19 12:01:14;;;;;;;;;;;;;;;;;;7344716;40;1129;-14
2021/05/19 12:06:45;;;;;;;;;;;;;;;;;;7336562;40;1012;-14
2021/05/19 12:12:19;;;;;;;;;;;;;;;;;;7336012;40;1940;-14
2021/05/19 12:17:42;;;;;;;;;;;;;;;;;;7335853;40;1003;-14
2021/05/19 12:23:04;;;;;;;;;;;;;;;;;;7334474;40;960;-14
2021/05/19 12:28:24;;;;;;;;;;;;;;;;;;7332410;40;949;-14
2021/05/19 12:33:46;;;;;;;;;;;;;;;;;;7331739;40;1935;-14
2021/05/19 12:39:07;;;;;;;;;;;;;;;;;;7348767;40;1248;-14
2021/05/19 12:44:31;;;;;;;;;;;;;;;;;;7352481;40;1027;-14
2021/05/19 12:50:00;;;;;;;;;;;;;;;;;;7351772;40;2466;-14
2021/05/19 12:55:21;;;;;;;;;;;;;;;;;;7368243;40;1008;-13
2021/05/19 13:00:55;;;;;;;;;;;;;;;;;;7370451;40;1198;-14
2021/05/19 13:06:16;;;;;;;;;;;;;;;;;;7373103;40;949;-14
2021/05/19 13:11:46;;;;;;;;;;;;;;;;;;7373416;40;1918;-14
2021/05/19 13:17:24;;;;;;;;;;;;;;;;;;7357611;40;954;-14
2021/05/19 13:22:54;;;;;;;;;;;;;;;;;;7372743;40;1026;-14
2021/05/19 13:28:22;;;;;;;;;;;;;;;;;;7372260;40;1439;-14
2021/05/19 13:39:12;;;;;;;;;;;;;;;;;;7372748;40;1006;-14
2021/05/19 13:44:32;;;;;;;;;;;;;;;;;;7371932;40;1410;-15
2021/05/19 13:49:55;;;;;;;;;;;;;;;;;;7352740;40;1935;-14
2021/05/19 13:55:16;;;;;;;;;;;;;;;;;;7351704;40;1008;-14
2021/05/19 14:00:36;;;;;;;;;;;;;;;;;;7351607;40;1264;-14
2021/05/19 14:05:57;;;;;;;;;;;;;;;;;;7348191;40;1026;-14
2021/05/19 14:11:20;;;;;;;;;;;;;;;;;;7347355;40;1878;-14
2021/05/19 14:28:03;;;;;;;;;;;;;;;;;;7351718;40;1003;-14
2021/05/19 14:33:24;;;;;;;;;;;;;;;;;;7350848;40;1883;-14
2021/05/19 15:01:04;;;;;;;;;;;;;;;;;;7322037;40;1270;-14
2021/05/19 15:06:27;;;;;;;;;;;;;;;;;;6050242;40;10001016;-16
2021/05/19 15:11:48;;;;;;;;;;;;;;;;;;7345196;40;1936;-16
2021/05/19 15:17:08;;;;;;;;;;;;;;;;;;7330394;40;968;-16
2021/05/19 15:22:29;;;;;;;;;;;;;;;;;;7336702;40;933;-16
2021/05/19 15:28:05;;;;;;;;;;;;;;;;;;6058814;40;10001000;-16
2021/05/19 15:33:26;;;;;;;;;;;;;;;;;;6676216;40;10000982;-16
2021/05/19 15:39:01;;;;;;;;;;;;;;;;;;6676612;40;10000878;-16
2021/05/19 15:44:22;;;;;;;;;;;;;;;;;;7349022;40;1511;-16
2021/05/19 15:49:44;;;;;;;;;;;;;;;;;;7370808;40;1029;-16
2021/05/19 15:55:06;;;;;;;;;;;;;;;;;;7329879;40;1926;-18
2021/05/19 16:00:27;;;;;;;;;;;;;;;;;;7331982;40;2137;-18
2021/05/19 16:06:02;;;;;;;;;;;;;;;;;;7329630;40;898;-18
2021/05/19 16:11:23;;;;;;;;;;;;;;;;;;7332510;40;1911;-18
2021/05/19 16:16:43;;;;;;;;;;;;;;;;;;7351339;40;1462;-18
2021/05/19 16:22:04;;;;;;;;;;;;;;;;;;7349609;40;1423;-18
2021/05/19 16:27:25;;;;;;;;;;;;;;;;;;7349125;40;1066;-17
2021/05/19 16:33:19;;;;;;;;;;;;;;;;;;7340540;40;1882;-18
2021/05/19 16:38:56;;;;;;;;;;;;;;;;;;7338021;40;1066;-18
2021/05/19 16:44:17;;;;;;;;;;;;;;;;;;7332387;40;984;-18
2021/05/19 16:49:39;;;;;;;;;;;;;;;;;;7331358;40;1341;-18
2021/05/19 16:55:02;;;;;;;;;;;;;;;;;;7330606;40;1886;-18
2021/05/19 17:00:24;;;;;;;;;;;;;;;;;;7330145;40;1488;-18
2021/05/19 17:05:45;;;;;;;;;;;;;;;;;;7330314;40;1088;-18
2021/05/19 17:11:08;;;;;;;;;;;;;;;;;;7321532;40;1879;-18
2021/05/19 17:16:29;;;;;;;;;;;;;;;;;;7085143;40;10000470;-18
2021/05/19 17:21:51;;;;;;;;;;;;;;;;;;7330229;40;982;-18
2021/05/19 17:27:12;;;;;;;;;;;;;;;;;;7344840;40;1018;-20
2021/05/19 17:32:32;;;;;;;;;;;;;;;;;;7347487;40;2074;-20
2021/05/19 17:37:54;;;;;;;;;;;;;;;;;;6715096;40;10000860;-17
2021/05/19 17:43:15;;;;;;;;;;;;;;;;;;7351600;40;1844;-20
2021/05/19 17:48:37;;;;;;;;;;;;;;;;;;7351388;40;1553;-18
2021/05/19 17:53:58;;;;;;;;;;;;;;;;;;7344487;40;1932;-20
2021/05/19 17:59:22;;;;;;;;;;;;;;;;;;7343719;40;1638;-20
2021/05/19 18:04:43;;;;;;;;;;;;;;;;;;7351654;40;1161;-20
2021/05/19 18:10:05;;;;;;;;;;;;;;;;;;7351507;40;1597;-19
2021/05/19 18:15:26;;;;;;;;;;;;;;;;;;7335269;40;1860;-20
2021/05/19 18:20:46;;;;;;;;;;;;;;;;;;7330898;40;1331;-19
2021/05/19 18:26:07;;;;;;;;;;;;;;;;;;7340418;40;2744;-19
2021/05/19 18:31:32;;;;;;;;;;;;;;;;;;7350828;40;2826;-20
2021/05/19 18:36:53;;;;;;;;;;;;;;;;;;7349612;40;998;-20
2021/05/19 18:42:16;;;;;;;;;;;;;;;;;;7349065;40;980;-20
2021/05/19 18:47:38;;;;;;;;;;;;;;;;;;7347030;40;1453;-19
2021/05/19 18:53:13;;;;;;;;;;;;;;;;;;7348411;40;1877;-20
2021/05/19 18:58:33;;;;;;;;;;;;;;;;;;7103029;40;9999774;-20
2021/05/19 19:03:57;;;;;;;;;;;;;;;;;;7348577;40;1201;-20
2021/05/19 19:09:18;;;;;;;;;;;;;;;;;;6669847;40;10001012;-18
2021/05/19 19:14:53;;;;;;;;;;;;;;;;;;7347007;40;1887;-18
2021/05/19 19:20:16;;;;;;;;;;;;;;;;;;7348997;40;982;-17
2021/05/19 19:25:37;;;;;;;;;;;;;;;;;;7349403;40;1009;-17
2021/05/19 19:30:58;;;;;;;;;;;;;;;;;;7348440;40;1955;-18
2021/05/19 19:36:33;;;;;;;;;;;;;;;;;;7350788;40;2690;-18
2021/05/19 19:41:54;;;;;;;;;;;;;;;;;;7351210;40;1118;-17
2021/05/19 19:47:17;;;;;;;;;;;;;;;;;;7351647;40;977;-18
2021/05/19 19:52:38;;;;;;;;;;;;;;;;;;7353016;40;1874;-18
2021/05/19 19:57:58;;;;;;;;;;;;;;;;;;7353345;40;1563;-17
2021/05/19 20:03:31;;;;;;;;;;;;;;;;;;6669224;40;10000914;-18
2021/05/19 20:08:52;;;;;;;;;;;;;;;;;;7329601;40;1047;-18
2021/05/19 20:14:26;;;;;;;;;;;;;;;;;;7335729;40;2002;-18
2021/05/19 20:19:48;;;;;;;;;;;;;;;;;;7337218;40;1111;-18
2021/05/19 20:25:09;;;;;;;;;;;;;;;;;;7348284;40;1240;-18
2021/05/19 20:30:30;;;;;;;;;;;;;;;;;;7346856;40;1779;-18
2021/05/19 20:36:06;;;;;;;;;;;;;;;;;;7347945;40;1871;-18
2021/05/19 20:41:26;;;;;;;;;;;;;;;;;;7348346;40;1011;-18
2021/05/19 20:46:47;;;;;;;;;;;;;;;;;;7347046;40;1346;-18
2021/05/19 20:52:22;;;;;;;;;;;;;;;;;;7343650;40;1898;-18
2021/05/19 20:57:44;;;;;;;;;;;;;;;;;;7346243;40;1617;-17
2021/05/19 21:03:05;;;;;;;;;;;;;;;;;;7348236;40;1284;-17
2021/05/19 21:08:40;;;;;;;;;;;;;;;;;;7347988;40;997;-18
2021/05/19 21:14:01;;;;;;;;;;;;;;;;;;7348238;40;1882;-17
2021/05/19 21:19:22;;;;;;;;;;;;;;;;;;7347155;40;1210;-18
2021/05/19 21:24:44;;;;;;;;;;;;;;;;;;7348141;40;946;-17
2021/05/19 21:30:05;;;;;;;;;;;;;;;;;;7346836;40;934;-17
2021/05/19 21:35:27;;;;;;;;;;;;;;;;;;7332567;40;1988;-17
2021/05/19 21:40:48;;;;;;;;;;;;;;;;;;7352046;40;1008;-17
2021/05/19 21:46:09;;;;;;;;;;;;;;;;;;7352588;40;949;-19
2021/05/19 21:51:30;;;;;;;;;;;;;;;;;;7352114;40;3010;-17
2021/05/19 21:56:50;;;;;;;;;;;;;;;;;;7351847;40;2141;-19
2021/05/19 22:02:25;;;;;;;;;;;;;;;;;;7352139;40;1346;-19
2021/05/19 22:07:46;;;;;;;;;;;;;;;;;;7352576;40;896;-19
2021/05/19 22:13:07;;;;;;;;;;;;;;;;;;7352203;40;1972;-19
2021/05/19 22:29:31;;;;;;;;;;;;;;;;;;7352148;40;904;-19
2021/05/19 22:34:51;;;;;;;;;;;;;;;;;;7351980;40;1879;-19
2021/05/19 22:40:13;;;;;;;;;;;;;;;;;;7343401;40;910;-19
2021/05/19 22:45:34;;;;;;;;;;;;;;;;;;7352040;40;978;-18
2021/05/19 22:50:55;;;;;;;;;;;;;;;;;;7352080;40;1034;-18
2021/05/19 22:56:16;;;;;;;;;;;;;;;;;;7351523;40;1870;-19
2021/05/19 23:01:37;;;;;;;;;;;;;;;;;;7351716;40;1288;-19
2021/05/19 23:06:58;;;;;;;;;;;;;;;;;;7350987;40;1204;-19
2021/05/19 23:12:18;;;;;;;;;;;;;;;;;;7351549;40;1903;-17
2021/05/19 23:17:40;;;;;;;;;;;;;;;;;;7350490;40;4200;-17
2021/05/19 23:23:01;;;;;;;;;;;;;;;;;;7348595;40;1315;-17
2021/05/19 23:28:24;;;;;;;;;;;;;;;;;;7335477;40;1398;-17
2021/05/19 23:33:45;;;;;;;;;;;;;;;;;;7350862;40;1883;-17
2021/05/19 23:39:06;;;;;;;;;;;;;;;;;;7350284;40;1955;-17
2021/05/19 23:44:27;;;;;;;;;;;;;;;;;;7335696;40;1009;-17
2021/05/19 23:49:52;;;;;;;;;;;;;;;;;;7350911;40;990;-17
2021/05/19 23:55:13;;;;;;;;;;;;;;;;;;7342837;40;1937;-17
